Greenwood, South Carolina
Current Conditions -  °F | °C
As of 5:56 PM on Tuesday 27 Jan 2015 (Local Time) from KGRD Reporting Station
Broken Clouds Broken Clouds  
Wind Chill: 47°   Ceiling: 7000
Heat Index: 47°   Visibility: 10mi
Dew Point: 26°   Wind: 3mph
Humidity: 44%   Direction: 280°W
Pressure: 29.93"   Gusts: NA
Location:  34.19°N, 82.16°W
Report Text: KGRD 272256Z AUTO 28003KT 10SM BKN070 08/M03 A2993 RMK AO2 SLP136 T00831033
Loading
Personal Weather Stations






























Interactive Weather Map New forecast layout! Learn more

10-Day Weather Forecast

Advertisements
Track Severe Weather on mobile